sensor_id;sensor_type;location;lat;lon;timestamp;P1;durP1;ratioP1;P2;durP2;ratioP2
79412;SDS011;68863;49.528;11.010;2023-05-07T00:00:07;5.57;;;2.72;;
79412;SDS011;68863;49.528;11.010;2023-05-07T00:01:08;6.00;;;3.67;;
79412;SDS011;68863;49.528;11.010;2023-05-07T00:02:08;5.70;;;3.20;;
79412;SDS011;68863;49.528;11.010;2023-05-07T00:03:09;6.40;;;3.22;;
79412;SDS011;68863;49.528;11.010;2023-05-07T00:04:09;4.97;;;2.45;;
79412;SDS011;68863;49.528;11.010;2023-05-07T00:05:09;5.63;;;3.00;;
79412;SDS011;68863;49.528;11.010;2023-05-07T00:06:10;6.75;;;2.72;;
79412;SDS011;68863;49.528;11.010;2023-05-07T00:08:12;4.70;;;2.47;;
79412;SDS011;68863;49.528;11.010;2023-05-07T00:09:13;5.73;;;2.73;;
79412;SDS011;68863;49.528;11.010;2023-05-07T00:10:13;5.18;;;2.42;;
79412;SDS011;68863;49.528;11.010;2023-05-07T00:11:13;5.00;;;2.55;;
79412;SDS011;68863;49.528;11.010;2023-05-07T00:12:13;5.33;;;2.63;;
79412;SDS011;68863;49.528;11.010;2023-05-07T00:13:14;5.53;;;2.83;;
79412;SDS011;68863;49.528;11.010;2023-05-07T00:14:14;5.35;;;2.92;;
79412;SDS011;68863;49.528;11.010;2023-05-07T00:15:15;5.03;;;2.43;;
79412;SDS011;68863;49.528;11.010;2023-05-07T00:16:15;5.13;;;2.65;;
79412;SDS011;68863;49.528;11.010;2023-05-07T00:17:15;6.57;;;2.80;;
79412;SDS011;68863;49.528;11.010;2023-05-07T00:18:15;5.60;;;2.93;;
79412;SDS011;68863;49.528;11.010;2023-05-07T00:19:16;5.60;;;3.38;;
79412;SDS011;68863;49.528;11.010;2023-05-07T00:20:16;4.83;;;2.97;;
79412;SDS011;68863;49.528;11.010;2023-05-07T00:21:16;6.88;;;3.42;;
79412;SDS011;68863;49.528;11.010;2023-05-07T00:22:17;6.13;;;2.88;;
79412;SDS011;68863;49.528;11.010;2023-05-07T00:23:17;6.13;;;2.93;;
79412;SDS011;68863;49.528;11.010;2023-05-07T00:24:17;5.88;;;2.90;;
79412;SDS011;68863;49.528;11.010;2023-05-07T00:25:18;7.87;;;3.03;;
79412;SDS011;68863;49.528;11.010;2023-05-07T00:26:19;6.38;;;2.90;;
79412;SDS011;68863;49.528;11.010;2023-05-07T00:27:20;6.63;;;2.80;;
79412;SDS011;68863;49.528;11.010;2023-05-07T00:28:20;4.87;;;2.30;;
79412;SDS011;68863;49.528;11.010;2023-05-07T00:29:21;5.53;;;3.17;;
79412;SDS011;68863;49.528;11.010;2023-05-07T00:30:21;5.33;;;3.10;;
79412;SDS011;68863;49.528;11.010;2023-05-07T00:31:21;5.85;;;2.90;;
79412;SDS011;68863;49.528;11.010;2023-05-07T00:32:21;7.18;;;3.40;;
79412;SDS011;68863;49.528;11.010;2023-05-07T00:33:22;5.20;;;2.80;;
79412;SDS011;68863;49.528;11.010;2023-05-07T00:34:22;7.65;;;3.17;;
79412;SDS011;68863;49.528;11.010;2023-05-07T00:35:22;5.95;;;2.78;;
79412;SDS011;68863;49.528;11.010;2023-05-07T00:36:23;6.32;;;3.10;;
79412;SDS011;68863;49.528;11.010;2023-05-07T00:37:23;5.07;;;2.80;;
79412;SDS011;68863;49.528;11.010;2023-05-07T00:38:23;6.05;;;3.08;;
79412;SDS011;68863;49.528;11.010;2023-05-07T00:39:24;5.95;;;2.60;;
79412;SDS011;68863;49.528;11.010;2023-05-07T00:40:24;5.50;;;3.07;;
79412;SDS011;68863;49.528;11.010;2023-05-07T00:41:24;5.40;;;3.00;;
79412;SDS011;68863;49.528;11.010;2023-05-07T00:42:24;6.70;;;3.55;;
79412;SDS011;68863;49.528;11.010;2023-05-07T00:43:25;5.65;;;2.97;;
79412;SDS011;68863;49.528;11.010;2023-05-07T00:44:25;6.47;;;3.28;;
79412;SDS011;68863;49.528;11.010;2023-05-07T00:45:26;6.05;;;3.40;;
79412;SDS011;68863;49.528;11.010;2023-05-07T00:46:27;5.72;;;2.95;;
79412;SDS011;68863;49.528;11.010;2023-05-07T00:47:28;6.63;;;2.90;;
79412;SDS011;68863;49.528;11.010;2023-05-07T00:48:28;5.55;;;2.97;;
79412;SDS011;68863;49.528;11.010;2023-05-07T00:49:40;6.18;;;3.38;;
79412;SDS011;68863;49.528;11.010;2023-05-07T00:50:42;7.07;;;3.30;;
79412;SDS011;68863;49.528;11.010;2023-05-07T00:51:43;5.35;;;2.90;;
79412;SDS011;68863;49.528;11.010;2023-05-07T00:52:44;4.70;;;3.05;;
79412;SDS011;68863;49.528;11.010;2023-05-07T00:53:44;5.30;;;2.70;;
79412;SDS011;68863;49.528;11.010;2023-05-07T00:54:45;5.85;;;3.22;;
79412;SDS011;68863;49.528;11.010;2023-05-07T00:55:45;5.35;;;2.83;;
79412;SDS011;68863;49.528;11.010;2023-05-07T00:56:46;5.82;;;2.88;;
79412;SDS011;68863;49.528;11.010;2023-05-07T00:57:46;6.10;;;2.83;;
79412;SDS011;68863;49.528;11.010;2023-05-07T00:58:47;5.43;;;2.78;;
79412;SDS011;68863;49.528;11.010;2023-05-07T00:59:48;4.90;;;2.75;;
79412;SDS011;68863;49.528;11.010;2023-05-07T01:00:48;5.88;;;3.38;;
79412;SDS011;68863;49.528;11.010;2023-05-07T01:01:48;7.50;;;3.10;;
79412;SDS011;68863;49.528;11.010;2023-05-07T01:02:49;5.97;;;2.67;;
79412;SDS011;68863;49.528;11.010;2023-05-07T01:03:49;7.57;;;3.00;;
79412;SDS011;68863;49.528;11.010;2023-05-07T01:04:49;5.45;;;3.03;;
79412;SDS011;68863;49.528;11.010;2023-05-07T01:05:49;5.00;;;2.63;;
79412;SDS011;68863;49.528;11.010;2023-05-07T01:06:51;5.15;;;3.08;;
79412;SDS011;68863;49.528;11.010;2023-05-07T01:07:53;6.75;;;3.05;;
79412;SDS011;68863;49.528;11.010;2023-05-07T01:08:55;5.57;;;2.80;;
79412;SDS011;68863;49.528;11.010;2023-05-07T01:09:57;5.63;;;2.70;;
79412;SDS011;68863;49.528;11.010;2023-05-07T01:10:58;6.82;;;3.08;;
79412;SDS011;68863;49.528;11.010;2023-05-07T01:11:59;7.40;;;2.90;;
79412;SDS011;68863;49.528;11.010;2023-05-07T01:12:59;4.95;;;2.65;;
79412;SDS011;68863;49.528;11.010;2023-05-07T01:14:00;5.43;;;2.97;;
79412;SDS011;68863;49.528;11.010;2023-05-07T01:15:02;5.40;;;2.67;;
79412;SDS011;68863;49.528;11.010;2023-05-07T01:16:03;4.82;;;2.92;;
79412;SDS011;68863;49.528;11.010;2023-05-07T01:17:03;5.18;;;2.63;;
79412;SDS011;68863;49.528;11.010;2023-05-07T01:18:04;5.28;;;2.67;;
79412;SDS011;68863;49.528;11.010;2023-05-07T01:19:07;4.50;;;2.45;;
79412;SDS011;68863;49.528;11.010;2023-05-07T01:20:10;4.85;;;2.50;;
79412;SDS011;68863;49.528;11.010;2023-05-07T01:21:11;5.55;;;3.08;;
79412;SDS011;68863;49.528;11.010;2023-05-07T01:22:12;5.28;;;2.67;;
79412;SDS011;68863;49.528;11.010;2023-05-07T01:23:15;4.95;;;2.72;;
79412;SDS011;68863;49.528;11.010;2023-05-07T01:24:17;5.28;;;2.72;;
79412;SDS011;68863;49.528;11.010;2023-05-07T01:25:18;5.72;;;2.60;;
79412;SDS011;68863;49.528;11.010;2023-05-07T01:26:19;5.13;;;2.53;;
79412;SDS011;68863;49.528;11.010;2023-05-07T01:27:20;6.07;;;2.40;;
79412;SDS011;68863;49.528;11.010;2023-05-07T01:28:20;4.83;;;2.23;;
79412;SDS011;68863;49.528;11.010;2023-05-07T01:29:21;5.75;;;2.50;;
79412;SDS011;68863;49.528;11.010;2023-05-07T01:30:21;4.38;;;3.10;;
79412;SDS011;68863;49.528;11.010;2023-05-07T01:31:22;5.18;;;2.17;;
79412;SDS011;68863;49.528;11.010;2023-05-07T01:32:27;5.20;;;2.33;;
79412;SDS011;68863;49.528;11.010;2023-05-07T01:34:34;4.68;;;2.00;;
79412;SDS011;68863;49.528;11.010;2023-05-07T01:35:41;3.92;;;1.73;;
79412;SDS011;68863;49.528;11.010;2023-05-07T01:36:43;4.50;;;2.50;;
79412;SDS011;68863;49.528;11.010;2023-05-07T01:37:44;5.07;;;2.30;;
79412;SDS011;68863;49.528;11.010;2023-05-07T01:38:46;5.65;;;2.42;;
79412;SDS011;68863;49.528;11.010;2023-05-07T01:39:47;5.45;;;2.40;;
79412;SDS011;68863;49.528;11.010;2023-05-07T01:40:48;6.22;;;2.58;;
79412;SDS011;68863;49.528;11.010;2023-05-07T01:41:48;5.05;;;2.42;;
79412;SDS011;68863;49.528;11.010;2023-05-07T01:42:49;5.35;;;2.45;;
79412;SDS011;68863;49.528;11.010;2023-05-07T01:43:50;5.65;;;2.33;;
79412;SDS011;68863;49.528;11.010;2023-05-07T01:44:52;5.53;;;2.38;;
79412;SDS011;68863;49.528;11.010;2023-05-07T01:45:52;5.60;;;2.40;;
79412;SDS011;68863;49.528;11.010;2023-05-07T01:46:53;5.05;;;2.78;;
79412;SDS011;68863;49.528;11.010;2023-05-07T01:47:54;4.45;;;2.47;;
79412;SDS011;68863;49.528;11.010;2023-05-07T01:48:55;5.13;;;2.65;;
79412;SDS011;68863;49.528;11.010;2023-05-07T01:49:56;4.93;;;2.45;;
79412;SDS011;68863;49.528;11.010;2023-05-07T01:50:57;6.68;;;2.63;;
79412;SDS011;68863;49.528;11.010;2023-05-07T01:51:58;5.68;;;2.28;;
79412;SDS011;68863;49.528;11.010;2023-05-07T01:52:59;4.63;;;2.10;;
79412;SDS011;68863;49.528;11.010;2023-05-07T01:53:59;5.03;;;2.30;;
79412;SDS011;68863;49.528;11.010;2023-05-07T01:55:00;4.35;;;2.03;;
79412;SDS011;68863;49.528;11.010;2023-05-07T01:56:00;4.93;;;2.15;;
79412;SDS011;68863;49.528;11.010;2023-05-07T01:57:00;4.70;;;2.50;;
79412;SDS011;68863;49.528;11.010;2023-05-07T01:58:01;4.82;;;2.33;;
79412;SDS011;68863;49.528;11.010;2023-05-07T01:59:01;5.53;;;2.47;;
79412;SDS011;68863;49.528;11.010;2023-05-07T02:00:02;5.18;;;2.47;;
79412;SDS011;68863;49.528;11.010;2023-05-07T02:01:06;5.00;;;2.60;;
79412;SDS011;68863;49.528;11.010;2023-05-07T02:02:06;5.20;;;2.30;;
79412;SDS011;68863;49.528;11.010;2023-05-07T02:03:06;5.07;;;2.97;;
79412;SDS011;68863;49.528;11.010;2023-05-07T02:04:06;5.47;;;2.83;;
79412;SDS011;68863;49.528;11.010;2023-05-07T02:05:07;6.10;;;2.67;;
79412;SDS011;68863;49.528;11.010;2023-05-07T02:06:07;5.05;;;2.55;;
79412;SDS011;68863;49.528;11.010;2023-05-07T02:07:08;5.40;;;2.42;;
79412;SDS011;68863;49.528;11.010;2023-05-07T02:08:08;5.68;;;2.65;;
79412;SDS011;68863;49.528;11.010;2023-05-07T02:09:08;5.13;;;2.72;;
79412;SDS011;68863;49.528;11.010;2023-05-07T02:10:09;5.50;;;2.42;;
79412;SDS011;68863;49.528;11.010;2023-05-07T02:11:09;4.78;;;2.65;;
79412;SDS011;68863;49.528;11.010;2023-05-07T02:12:09;5.40;;;2.60;;
79412;SDS011;68863;49.528;11.010;2023-05-07T02:13:10;6.68;;;2.97;;
79412;SDS011;68863;49.528;11.010;2023-05-07T02:14:10;4.30;;;2.10;;
79412;SDS011;68863;49.528;11.010;2023-05-07T02:15:10;4.63;;;2.28;;
79412;SDS011;68863;49.528;11.010;2023-05-07T02:16:11;6.10;;;2.70;;
79412;SDS011;68863;49.528;11.010;2023-05-07T02:17:11;6.53;;;2.43;;
79412;SDS011;68863;49.528;11.010;2023-05-07T02:18:11;5.57;;;2.30;;
79412;SDS011;68863;49.528;11.010;2023-05-07T02:19:11;5.80;;;2.77;;
79412;SDS011;68863;49.528;11.010;2023-05-07T02:20:12;5.75;;;2.00;;
79412;SDS011;68863;49.528;11.010;2023-05-07T02:21:13;5.45;;;2.13;;
79412;SDS011;68863;49.528;11.010;2023-05-07T02:22:13;3.93;;;2.00;;
79412;SDS011;68863;49.528;11.010;2023-05-07T02:23:13;4.87;;;2.33;;
79412;SDS011;68863;49.528;11.010;2023-05-07T02:24:13;5.03;;;2.10;;
79412;SDS011;68863;49.528;11.010;2023-05-07T02:25:14;5.00;;;2.43;;
79412;SDS011;68863;49.528;11.010;2023-05-07T02:26:14;4.40;;;2.25;;
79412;SDS011;68863;49.528;11.010;2023-05-07T02:27:14;5.28;;;2.40;;
79412;SDS011;68863;49.528;11.010;2023-05-07T02:28:15;5.40;;;2.53;;
79412;SDS011;68863;49.528;11.010;2023-05-07T02:29:15;6.30;;;2.20;;
79412;SDS011;68863;49.528;11.010;2023-05-07T02:30:15;6.30;;;2.20;;
79412;SDS011;68863;49.528;11.010;2023-05-07T02:31:16;4.60;;;2.33;;
79412;SDS011;68863;49.528;11.010;2023-05-07T02:32:16;4.63;;;1.90;;
79412;SDS011;68863;49.528;11.010;2023-05-07T02:33:16;4.40;;;2.22;;
79412;SDS011;68863;49.528;11.010;2023-05-07T02:34:17;5.53;;;2.70;;
79412;SDS011;68863;49.528;11.010;2023-05-07T02:35:17;4.67;;;2.70;;
79412;SDS011;68863;49.528;11.010;2023-05-07T02:36:17;5.28;;;2.42;;
79412;SDS011;68863;49.528;11.010;2023-05-07T02:37:17;4.38;;;2.00;;
79412;SDS011;68863;49.528;11.010;2023-05-07T02:38:18;4.72;;;2.03;;
79412;SDS011;68863;49.528;11.010;2023-05-07T02:39:18;5.53;;;2.20;;
79412;SDS011;68863;49.528;11.010;2023-05-07T02:40:18;4.87;;;2.50;;
79412;SDS011;68863;49.528;11.010;2023-05-07T02:41:19;4.57;;;2.50;;
79412;SDS011;68863;49.528;11.010;2023-05-07T02:42:20;4.30;;;2.03;;
79412;SDS011;68863;49.528;11.010;2023-05-07T02:43:20;4.60;;;2.30;;
79412;SDS011;68863;49.528;11.010;2023-05-07T02:44:20;4.43;;;2.03;;
79412;SDS011;68863;49.528;11.010;2023-05-07T02:45:20;4.90;;;2.03;;
79412;SDS011;68863;49.528;11.010;2023-05-07T02:46:21;4.40;;;2.27;;
79412;SDS011;68863;49.528;11.010;2023-05-07T02:47:21;4.73;;;2.33;;
79412;SDS011;68863;49.528;11.010;2023-05-07T02:48:22;4.28;;;2.05;;
79412;SDS011;68863;49.528;11.010;2023-05-07T02:49:22;4.65;;;2.70;;
79412;SDS011;68863;49.528;11.010;2023-05-07T02:50:22;4.85;;;2.30;;
79412;SDS011;68863;49.528;11.010;2023-05-07T02:51:23;5.55;;;2.10;;
79412;SDS011;68863;49.528;11.010;2023-05-07T02:52:23;5.60;;;2.20;;
79412;SDS011;68863;49.528;11.010;2023-05-07T02:53:24;4.47;;;2.08;;
79412;SDS011;68863;49.528;11.010;2023-05-07T02:54:29;5.60;;;2.17;;
79412;SDS011;68863;49.528;11.010;2023-05-07T02:55:29;4.78;;;2.38;;
79412;SDS011;68863;49.528;11.010;2023-05-07T02:56:30;5.85;;;2.20;;
79412;SDS011;68863;49.528;11.010;2023-05-07T02:57:30;5.23;;;2.47;;
79412;SDS011;68863;49.528;11.010;2023-05-07T02:58:30;5.10;;;2.30;;
79412;SDS011;68863;49.528;11.010;2023-05-07T02:59:31;4.75;;;2.30;;
79412;SDS011;68863;49.528;11.010;2023-05-07T03:00:31;5.47;;;2.57;;
79412;SDS011;68863;49.528;11.010;2023-05-07T03:01:31;6.18;;;2.45;;
79412;SDS011;68863;49.528;11.010;2023-05-07T03:02:31;5.20;;;2.30;;
79412;SDS011;68863;49.528;11.010;2023-05-07T03:03:32;5.07;;;1.77;;
79412;SDS011;68863;49.528;11.010;2023-05-07T03:04:32;4.70;;;1.90;;
79412;SDS011;68863;49.528;11.010;2023-05-07T03:05:32;4.10;;;1.83;;
79412;SDS011;68863;49.528;11.010;2023-05-07T03:06:32;3.67;;;1.70;;
79412;SDS011;68863;49.528;11.010;2023-05-07T03:07:33;4.05;;;1.90;;
79412;SDS011;68863;49.528;11.010;2023-05-07T03:08:34;4.55;;;2.15;;
79412;SDS011;68863;49.528;11.010;2023-05-07T03:09:35;5.25;;;1.98;;
79412;SDS011;68863;49.528;11.010;2023-05-07T03:10:35;5.28;;;2.55;;
79412;SDS011;68863;49.528;11.010;2023-05-07T03:11:36;4.78;;;1.90;;
79412;SDS011;68863;49.528;11.010;2023-05-07T03:12:37;4.95;;;2.33;;
79412;SDS011;68863;49.528;11.010;2023-05-07T03:13:37;5.43;;;2.25;;
79412;SDS011;68863;49.528;11.010;2023-05-07T03:14:38;5.23;;;2.20;;
79412;SDS011;68863;49.528;11.010;2023-05-07T03:15:38;4.50;;;2.40;;
79412;SDS011;68863;49.528;11.010;2023-05-07T03:16:38;4.20;;;2.10;;
79412;SDS011;68863;49.528;11.010;2023-05-07T03:17:38;5.37;;;2.27;;
79412;SDS011;68863;49.528;11.010;2023-05-07T03:18:39;4.95;;;2.40;;
79412;SDS011;68863;49.528;11.010;2023-05-07T03:19:39;4.60;;;2.60;;
79412;SDS011;68863;49.528;11.010;2023-05-07T03:20:39;4.57;;;2.13;;
79412;SDS011;68863;49.528;11.010;2023-05-07T03:21:39;4.78;;;2.50;;
79412;SDS011;68863;49.528;11.010;2023-05-07T03:22:40;5.47;;;2.10;;
79412;SDS011;68863;49.528;11.010;2023-05-07T03:23:41;4.97;;;2.33;;
79412;SDS011;68863;49.528;11.010;2023-05-07T03:24:41;4.17;;;2.07;;
79412;SDS011;68863;49.528;11.010;2023-05-07T03:25:41;4.97;;;2.67;;
79412;SDS011;68863;49.528;11.010;2023-05-07T03:26:41;4.82;;;2.40;;
79412;SDS011;68863;49.528;11.010;2023-05-07T03:27:42;5.17;;;2.07;;
79412;SDS011;68863;49.528;11.010;2023-05-07T03:28:42;4.10;;;2.33;;
79412;SDS011;68863;49.528;11.010;2023-05-07T03:29:42;4.97;;;2.35;;
79412;SDS011;68863;49.528;11.010;2023-05-07T03:30:42;5.20;;;2.50;;
79412;SDS011;68863;49.528;11.010;2023-05-07T03:31:43;4.78;;;2.35;;
79412;SDS011;68863;49.528;11.010;2023-05-07T03:32:43;4.85;;;2.33;;
79412;SDS011;68863;49.528;11.010;2023-05-07T03:33:53;4.40;;;2.08;;
79412;SDS011;68863;49.528;11.010;2023-05-07T03:34:55;4.28;;;2.00;;
79412;SDS011;68863;49.528;11.010;2023-05-07T03:35:55;4.35;;;2.08;;
79412;SDS011;68863;49.528;11.010;2023-05-07T03:36:56;5.15;;;2.72;;
79412;SDS011;68863;49.528;11.010;2023-05-07T03:37:56;5.35;;;2.80;;
79412;SDS011;68863;49.528;11.010;2023-05-07T03:38:56;5.50;;;2.13;;
79412;SDS011;68863;49.528;11.010;2023-05-07T03:39:56;5.37;;;2.40;;
79412;SDS011;68863;49.528;11.010;2023-05-07T03:40:57;4.85;;;1.92;;
79412;SDS011;68863;49.528;11.010;2023-05-07T03:41:57;5.22;;;2.40;;
79412;SDS011;68863;49.528;11.010;2023-05-07T03:42:59;4.78;;;2.17;;
79412;SDS011;68863;49.528;11.010;2023-05-07T03:43:59;6.38;;;2.28;;
79412;SDS011;68863;49.528;11.010;2023-05-07T03:45:00;5.13;;;2.67;;
79412;SDS011;68863;49.528;11.010;2023-05-07T03:46:00;6.17;;;3.27;;
79412;SDS011;68863;49.528;11.010;2023-05-07T03:47:00;5.23;;;2.90;;
79412;SDS011;68863;49.528;11.010;2023-05-07T03:48:00;6.70;;;2.40;;
79412;SDS011;68863;49.528;11.010;2023-05-07T03:49:01;6.38;;;2.40;;
79412;SDS011;68863;49.528;11.010;2023-05-07T03:50:01;4.93;;;2.30;;
79412;SDS011;68863;49.528;11.010;2023-05-07T03:51:01;6.03;;;2.88;;
79412;SDS011;68863;49.528;11.010;2023-05-07T03:52:02;6.27;;;2.97;;
79412;SDS011;68863;49.528;11.010;2023-05-07T03:53:02;6.78;;;2.88;;
79412;SDS011;68863;49.528;11.010;2023-05-07T03:54:02;5.43;;;2.77;;
79412;SDS011;68863;49.528;11.010;2023-05-07T03:55:02;5.28;;;2.78;;
79412;SDS011;68863;49.528;11.010;2023-05-07T03:56:03;7.03;;;3.13;;
79412;SDS011;68863;49.528;11.010;2023-05-07T03:57:03;5.68;;;2.92;;
79412;SDS011;68863;49.528;11.010;2023-05-07T03:58:04;5.60;;;2.90;;
79412;SDS011;68863;49.528;11.010;2023-05-07T03:59:04;5.30;;;3.13;;
79412;SDS011;68863;49.528;11.010;2023-05-07T04:00:04;5.20;;;2.65;;
79412;SDS011;68863;49.528;11.010;2023-05-07T04:01:06;6.45;;;3.65;;
79412;SDS011;68863;49.528;11.010;2023-05-07T04:02:07;6.10;;;2.92;;
79412;SDS011;68863;49.528;11.010;2023-05-07T04:03:07;8.25;;;3.47;;
79412;SDS011;68863;49.528;11.010;2023-05-07T04:04:08;4.78;;;2.80;;
79412;SDS011;68863;49.528;11.010;2023-05-07T04:05:08;6.28;;;2.88;;
79412;SDS011;68863;49.528;11.010;2023-05-07T04:06:08;5.75;;;2.90;;
79412;SDS011;68863;49.528;11.010;2023-05-07T04:07:08;5.53;;;3.13;;
79412;SDS011;68863;49.528;11.010;2023-05-07T04:08:09;6.70;;;2.90;;
79412;SDS011;68863;49.528;11.010;2023-05-07T04:09:10;7.13;;;2.93;;
79412;SDS011;68863;49.528;11.010;2023-05-07T04:10:10;5.80;;;3.23;;
79412;SDS011;68863;49.528;11.010;2023-05-07T04:11:10;7.43;;;3.53;;
79412;SDS011;68863;49.528;11.010;2023-05-07T04:12:10;6.43;;;3.20;;
79412;SDS011;68863;49.528;11.010;2023-05-07T04:13:11;6.23;;;2.83;;
79412;SDS011;68863;49.528;11.010;2023-05-07T04:14:11;5.47;;;2.90;;
79412;SDS011;68863;49.528;11.010;2023-05-07T04:15:11;6.37;;;2.97;;
79412;SDS011;68863;49.528;11.010;2023-05-07T04:16:11;6.10;;;3.50;;
79412;SDS011;68863;49.528;11.010;2023-05-07T04:17:12;7.20;;;4.85;;
79412;SDS011;68863;49.528;11.010;2023-05-07T04:18:12;6.95;;;3.83;;
79412;SDS011;68863;49.528;11.010;2023-05-07T04:19:12;6.88;;;3.67;;
79412;SDS011;68863;49.528;11.010;2023-05-07T04:20:14;7.65;;;3.75;;
79412;SDS011;68863;49.528;11.010;2023-05-07T04:21:16;5.47;;;3.10;;
79412;SDS011;68863;49.528;11.010;2023-05-07T04:22:17;6.13;;;3.33;;
79412;SDS011;68863;49.528;11.010;2023-05-07T04:23:18;6.30;;;3.27;;
79412;SDS011;68863;49.528;11.010;2023-05-07T04:24:18;5.57;;;3.03;;
79412;SDS011;68863;49.528;11.010;2023-05-07T04:25:18;5.70;;;3.30;;
79412;SDS011;68863;49.528;11.010;2023-05-07T04:26:19;5.50;;;3.33;;
79412;SDS011;68863;49.528;11.010;2023-05-07T04:27:21;7.00;;;3.72;;
79412;SDS011;68863;49.528;11.010;2023-05-07T04:28:21;7.47;;;3.73;;
79412;SDS011;68863;49.528;11.010;2023-05-07T04:29:21;7.00;;;3.35;;
79412;SDS011;68863;49.528;11.010;2023-05-07T04:30:25;5.95;;;2.95;;
79412;SDS011;68863;49.528;11.010;2023-05-07T04:31:25;5.55;;;2.85;;
79412;SDS011;68863;49.528;11.010;2023-05-07T04:32:29;6.22;;;3.33;;
79412;SDS011;68863;49.528;11.010;2023-05-07T04:33:51;6.90;;;2.80;;
79412;SDS011;68863;49.528;11.010;2023-05-07T04:34:51;6.93;;;2.70;;
79412;SDS011;68863;49.528;11.010;2023-05-07T04:35:52;6.63;;;3.08;;
79412;SDS011;68863;49.528;11.010;2023-05-07T04:36:52;5.30;;;2.85;;
79412;SDS011;68863;49.528;11.010;2023-05-07T04:37:53;6.07;;;2.83;;
79412;SDS011;68863;49.528;11.010;2023-05-07T04:38:53;6.15;;;3.10;;
79412;SDS011;68863;49.528;11.010;2023-05-07T04:39:53;6.32;;;3.10;;
79412;SDS011;68863;49.528;11.010;2023-05-07T04:40:53;5.57;;;2.90;;
79412;SDS011;68863;49.528;11.010;2023-05-07T04:41:54;5.65;;;3.00;;
79412;SDS011;68863;49.528;11.010;2023-05-07T04:42:54;5.43;;;2.70;;
79412;SDS011;68863;49.528;11.010;2023-05-07T04:43:55;4.78;;;2.45;;
79412;SDS011;68863;49.528;11.010;2023-05-07T04:44:56;5.53;;;2.95;;
79412;SDS011;68863;49.528;11.010;2023-05-07T04:45:57;5.55;;;2.75;;
79412;SDS011;68863;49.528;11.010;2023-05-07T04:46:57;5.82;;;2.80;;
79412;SDS011;68863;49.528;11.010;2023-05-07T04:47:57;6.00;;;2.63;;
79412;SDS011;68863;49.528;11.010;2023-05-07T04:48:58;5.93;;;3.07;;
79412;SDS011;68863;49.528;11.010;2023-05-07T04:49:58;5.25;;;2.67;;
79412;SDS011;68863;49.528;11.010;2023-05-07T04:50:58;5.90;;;2.67;;
79412;SDS011;68863;49.528;11.010;2023-05-07T04:51:58;5.63;;;2.70;;
79412;SDS011;68863;49.528;11.010;2023-05-07T04:52:59;5.55;;;3.08;;
79412;SDS011;68863;49.528;11.010;2023-05-07T04:53:59;6.50;;;3.30;;
79412;SDS011;68863;49.528;11.010;2023-05-07T04:54:59;6.65;;;2.88;;
79412;SDS011;68863;49.528;11.010;2023-05-07T04:56:00;7.20;;;3.47;;
79412;SDS011;68863;49.528;11.010;2023-05-07T04:57:02;6.30;;;3.20;;
79412;SDS011;68863;49.528;11.010;2023-05-07T04:58:04;5.60;;;2.90;;
79412;SDS011;68863;49.528;11.010;2023-05-07T04:59:04;5.80;;;2.97;;
79412;SDS011;68863;49.528;11.010;2023-05-07T05:00:05;6.68;;;3.13;;
79412;SDS011;68863;49.528;11.010;2023-05-07T05:01:08;6.55;;;3.53;;
79412;SDS011;68863;49.528;11.010;2023-05-07T05:02:09;7.72;;;4.10;;
79412;SDS011;68863;49.528;11.010;2023-05-07T05:03:10;7.03;;;3.70;;
79412;SDS011;68863;49.528;11.010;2023-05-07T05:04:11;7.10;;;3.75;;
79412;SDS011;68863;49.528;11.010;2023-05-07T05:05:11;6.03;;;3.25;;
79412;SDS011;68863;49.528;11.010;2023-05-07T05:06:11;6.20;;;3.70;;
79412;SDS011;68863;49.528;11.010;2023-05-07T05:07:12;6.00;;;3.50;;
79412;SDS011;68863;49.528;11.010;2023-05-07T05:08:12;6.20;;;3.03;;
79412;SDS011;68863;49.528;11.010;2023-05-07T05:09:12;7.50;;;3.67;;
79412;SDS011;68863;49.528;11.010;2023-05-07T05:10:12;5.50;;;3.22;;
79412;SDS011;68863;49.528;11.010;2023-05-07T05:11:13;6.57;;;3.60;;
79412;SDS011;68863;49.528;11.010;2023-05-07T05:12:13;6.50;;;3.30;;
79412;SDS011;68863;49.528;11.010;2023-05-07T05:13:14;7.85;;;3.78;;
79412;SDS011;68863;49.528;11.010;2023-05-07T05:14:14;7.55;;;3.65;;
79412;SDS011;68863;49.528;11.010;2023-05-07T05:15:14;7.15;;;3.40;;
79412;SDS011;68863;49.528;11.010;2023-05-07T05:16:15;7.07;;;3.95;;
79412;SDS011;68863;49.528;11.010;2023-05-07T05:17:15;7.00;;;3.63;;
79412;SDS011;68863;49.528;11.010;2023-05-07T05:18:15;6.47;;;3.67;;
79412;SDS011;68863;49.528;11.010;2023-05-07T05:19:16;6.45;;;3.70;;
79412;SDS011;68863;49.528;11.010;2023-05-07T05:20:16;7.70;;;4.40;;
79412;SDS011;68863;49.528;11.010;2023-05-07T05:21:17;6.65;;;3.55;;
79412;SDS011;68863;49.528;11.010;2023-05-07T05:22:17;7.40;;;4.03;;
79412;SDS011;68863;49.528;11.010;2023-05-07T05:23:17;5.97;;;3.30;;
79412;SDS011;68863;49.528;11.010;2023-05-07T05:24:18;6.85;;;4.40;;
79412;SDS011;68863;49.528;11.010;2023-05-07T05:25:18;7.13;;;3.78;;
79412;SDS011;68863;49.528;11.010;2023-05-07T05:26:19;6.13;;;3.60;;
79412;SDS011;68863;49.528;11.010;2023-05-07T05:27:21;8.05;;;3.75;;
79412;SDS011;68863;49.528;11.010;2023-05-07T05:28:21;7.70;;;4.30;;
79412;SDS011;68863;49.528;11.010;2023-05-07T05:29:21;6.88;;;4.55;;
79412;SDS011;68863;49.528;11.010;2023-05-07T05:30:21;7.82;;;4.43;;
79412;SDS011;68863;49.528;11.010;2023-05-07T05:31:22;7.28;;;3.92;;
79412;SDS011;68863;49.528;11.010;2023-05-07T05:32:22;7.57;;;4.70;;
79412;SDS011;68863;49.528;11.010;2023-05-07T05:33:22;7.00;;;4.38;;
79412;SDS011;68863;49.528;11.010;2023-05-07T05:34:23;7.32;;;3.78;;
79412;SDS011;68863;49.528;11.010;2023-05-07T05:35:23;6.80;;;4.17;;
79412;SDS011;68863;49.528;11.010;2023-05-07T05:36:23;8.57;;;3.97;;
79412;SDS011;68863;49.528;11.010;2023-05-07T05:37:24;7.88;;;3.88;;
79412;SDS011;68863;49.528;11.010;2023-05-07T05:38:24;6.53;;;4.22;;
79412;SDS011;68863;49.528;11.010;2023-05-07T05:39:25;7.45;;;3.95;;
79412;SDS011;68863;49.528;11.010;2023-05-07T05:40:26;7.07;;;4.23;;
79412;SDS011;68863;49.528;11.010;2023-05-07T05:41:26;7.20;;;3.97;;
79412;SDS011;68863;49.528;11.010;2023-05-07T05:42:26;7.15;;;3.60;;
79412;SDS011;68863;49.528;11.010;2023-05-07T05:43:26;7.03;;;4.03;;
79412;SDS011;68863;49.528;11.010;2023-05-07T05:44:27;6.32;;;3.83;;
79412;SDS011;68863;49.528;11.010;2023-05-07T05:45:27;7.18;;;3.88;;
79412;SDS011;68863;49.528;11.010;2023-05-07T05:46:27;8.50;;;4.38;;
79412;SDS011;68863;49.528;11.010;2023-05-07T05:47:28;7.22;;;4.18;;
79412;SDS011;68863;49.528;11.010;2023-05-07T05:48:29;8.07;;;4.07;;
79412;SDS011;68863;49.528;11.010;2023-05-07T05:49:30;7.55;;;4.85;;
79412;SDS011;68863;49.528;11.010;2023-05-07T05:50:30;7.63;;;4.13;;
79412;SDS011;68863;49.528;11.010;2023-05-07T05:51:30;6.93;;;4.47;;
79412;SDS011;68863;49.528;11.010;2023-05-07T05:52:31;7.38;;;4.35;;
79412;SDS011;68863;49.528;11.010;2023-05-07T05:53:31;7.57;;;4.17;;
79412;SDS011;68863;49.528;11.010;2023-05-07T05:54:31;8.00;;;4.30;;
79412;SDS011;68863;49.528;11.010;2023-05-07T05:55:31;8.07;;;4.23;;
79412;SDS011;68863;49.528;11.010;2023-05-07T05:56:32;9.25;;;4.13;;
79412;SDS011;68863;49.528;11.010;2023-05-07T05:57:33;7.25;;;4.30;;
79412;SDS011;68863;49.528;11.010;2023-05-07T05:58:33;6.82;;;3.97;;
79412;SDS011;68863;49.528;11.010;2023-05-07T05:59:33;9.05;;;4.68;;
79412;SDS011;68863;49.528;11.010;2023-05-07T06:00:34;7.85;;;4.35;;
79412;SDS011;68863;49.528;11.010;2023-05-07T06:01:34;8.20;;;4.07;;